sensor_id;sensor_type;location;lat;lon;timestamp;P1;durP1;ratioP1;P2;durP2;ratioP2
69937;SDS011;57248;47.320;15.998;2023-01-31T00:01:52;0.90;;;0.10;;
69937;SDS011;57248;47.320;15.998;2023-01-31T00:04:24;3.58;;;0.10;;
69937;SDS011;57248;47.320;15.998;2023-01-31T00:06:50;1.10;;;0.10;;
69937;SDS011;57248;47.320;15.998;2023-01-31T00:09:24;1.13;;;0.10;;
69937;SDS011;57248;47.320;15.998;2023-01-31T00:12:03;1.88;;;0.10;;
69937;SDS011;57248;47.320;15.998;2023-01-31T00:14:35;1.42;;;0.10;;
69937;SDS011;57248;47.320;15.998;2023-01-31T00:17:07;1.98;;;0.10;;
69937;SDS011;57248;47.320;15.998;2023-01-31T00:19:39;1.57;;;0.10;;
69937;SDS011;57248;47.320;15.998;2023-01-31T00:22:05;2.28;;;0.10;;
69937;SDS011;57248;47.320;15.998;2023-01-31T00:24:36;1.45;;;0.10;;
69937;SDS011;57248;47.320;15.998;2023-01-31T00:27:08;1.13;;;0.00;;
69937;SDS011;57248;47.320;15.998;2023-01-31T00:29:41;1.05;;;0.05;;
69937;SDS011;57248;47.320;15.998;2023-01-31T00:32:15;1.25;;;0.10;;
69937;SDS011;57248;47.320;15.998;2023-01-31T00:34:49;0.93;;;0.10;;
69937;SDS011;57248;47.320;15.998;2023-01-31T00:37:20;1.15;;;0.10;;
69937;SDS011;57248;47.320;15.998;2023-01-31T00:39:52;0.60;;;0.00;;
69937;SDS011;57248;47.320;15.998;2023-01-31T00:42:24;1.88;;;0.10;;
69937;SDS011;57248;47.320;15.998;2023-01-31T00:44:56;1.48;;;0.10;;
69937;SDS011;57248;47.320;15.998;2023-01-31T00:47:28;2.22;;;0.10;;
69937;SDS011;57248;47.320;15.998;2023-01-31T00:50:00;1.30;;;0.20;;
69937;SDS011;57248;47.320;15.998;2023-01-31T00:52:32;1.03;;;0.07;;
69937;SDS011;57248;47.320;15.998;2023-01-31T00:55:04;0.90;;;0.00;;
69937;SDS011;57248;47.320;15.998;2023-01-31T00:57:36;1.02;;;0.03;;
69937;SDS011;57248;47.320;15.998;2023-01-31T01:00:10;2.63;;;0.10;;
69937;SDS011;57248;47.320;15.998;2023-01-31T01:02:42;0.80;;;0.10;;
69937;SDS011;57248;47.320;15.998;2023-01-31T01:05:14;2.20;;;0.10;;
69937;SDS011;57248;47.320;15.998;2023-01-31T01:07:46;1.10;;;0.10;;
69937;SDS011;57248;47.320;15.998;2023-01-31T01:10:18;0.95;;;0.00;;
69937;SDS011;57248;47.320;15.998;2023-01-31T01:12:59;1.20;;;0.00;;
69937;SDS011;57248;47.320;15.998;2023-01-31T01:15:31;1.13;;;0.03;;
69937;SDS011;57248;47.320;15.998;2023-01-31T01:18:02;0.67;;;0.00;;
69937;SDS011;57248;47.320;15.998;2023-01-31T01:20:36;2.22;;;0.10;;
69937;SDS011;57248;47.320;15.998;2023-01-31T01:23:08;1.13;;;0.00;;
69937;SDS011;57248;47.320;15.998;2023-01-31T01:25:41;0.82;;;0.00;;
69937;SDS011;57248;47.320;15.998;2023-01-31T01:28:14;0.82;;;0.00;;
69937;SDS011;57248;47.320;15.998;2023-01-31T01:30:46;1.00;;;0.00;;
69937;SDS011;57248;47.320;15.998;2023-01-31T01:33:19;1.23;;;0.28;;
69937;SDS011;57248;47.320;15.998;2023-01-31T01:35:50;0.38;;;0.00;;
69937;SDS011;57248;47.320;15.998;2023-01-31T01:38:22;1.15;;;0.05;;
69937;SDS011;57248;47.320;15.998;2023-01-31T01:40:54;1.25;;;0.00;;
69937;SDS011;57248;47.320;15.998;2023-01-31T01:46:16;0.88;;;0.00;;
69937;SDS011;57248;47.320;15.998;2023-01-31T01:49:02;2.58;;;0.10;;
69937;SDS011;57248;47.320;15.998;2023-01-31T01:51:48;0.73;;;0.00;;
69937;SDS011;57248;47.320;15.998;2023-01-31T01:54:26;0.77;;;0.00;;
69937;SDS011;57248;47.320;15.998;2023-01-31T01:57:04;0.53;;;0.00;;
69937;SDS011;57248;47.320;15.998;2023-01-31T01:59:39;1.65;;;0.00;;
69937;SDS011;57248;47.320;15.998;2023-01-31T02:02:15;0.98;;;0.00;;
69937;SDS011;57248;47.320;15.998;2023-01-31T02:04:48;1.27;;;0.10;;
69937;SDS011;57248;47.320;15.998;2023-01-31T02:07:21;0.60;;;0.00;;
69937;SDS011;57248;47.320;15.998;2023-01-31T02:09:56;0.50;;;0.00;;
69937;SDS011;57248;47.320;15.998;2023-01-31T02:12:33;0.85;;;0.00;;
69937;SDS011;57248;47.320;15.998;2023-01-31T02:15:07;0.50;;;0.00;;
69937;SDS011;57248;47.320;15.998;2023-01-31T02:17:39;1.00;;;0.00;;
69937;SDS011;57248;47.320;15.998;2023-01-31T02:20:30;1.17;;;0.00;;
69937;SDS011;57248;47.320;15.998;2023-01-31T02:34:53;0.75;;;0.00;;
69937;SDS011;57248;47.320;15.998;2023-01-31T02:40:21;0.93;;;0.00;;
69937;SDS011;57248;47.320;15.998;2023-01-31T02:43:17;0.77;;;0.00;;
69937;SDS011;57248;47.320;15.998;2023-01-31T02:46:10;1.33;;;0.00;;
69937;SDS011;57248;47.320;15.998;2023-01-31T02:48:53;0.63;;;0.00;;
69937;SDS011;57248;47.320;15.998;2023-01-31T02:51:33;1.15;;;0.00;;
69937;SDS011;57248;47.320;15.998;2023-01-31T02:54:16;0.88;;;0.00;;
69937;SDS011;57248;47.320;15.998;2023-01-31T02:56:54;1.57;;;0.00;;
69937;SDS011;57248;47.320;15.998;2023-01-31T02:59:26;1.58;;;0.00;;
69937;SDS011;57248;47.320;15.998;2023-01-31T03:02:02;1.58;;;0.00;;
69937;SDS011;57248;47.320;15.998;2023-01-31T03:04:34;1.27;;;0.08;;
69937;SDS011;57248;47.320;15.998;2023-01-31T03:07:13;1.27;;;0.08;;
69937;SDS011;57248;47.320;15.998;2023-01-31T03:10:00;1.57;;;0.00;;
69937;SDS011;57248;47.320;15.998;2023-01-31T03:12:47;1.50;;;0.00;;
69937;SDS011;57248;47.320;15.998;2023-01-31T03:15:41;1.02;;;0.00;;
69937;SDS011;57248;47.320;15.998;2023-01-31T03:18:43;1.58;;;0.10;;
69937;SDS011;57248;47.320;15.998;2023-01-31T03:21:26;2.20;;;0.10;;
69937;SDS011;57248;47.320;15.998;2023-01-31T03:24:06;1.10;;;0.10;;
69937;SDS011;57248;47.320;15.998;2023-01-31T03:26:39;3.65;;;0.55;;
69937;SDS011;57248;47.320;15.998;2023-01-31T03:29:05;1.65;;;0.20;;
69937;SDS011;57248;47.320;15.998;2023-01-31T03:31:45;0.55;;;0.00;;
69937;SDS011;57248;47.320;15.998;2023-01-31T03:34:31;1.48;;;0.10;;
69937;SDS011;57248;47.320;15.998;2023-01-31T03:37:16;0.67;;;0.00;;
69937;SDS011;57248;47.320;15.998;2023-01-31T03:40:12;0.57;;;0.00;;
69937;SDS011;57248;47.320;15.998;2023-01-31T03:46:14;0.75;;;0.00;;
69937;SDS011;57248;47.320;15.998;2023-01-31T03:48:52;0.90;;;0.00;;
69937;SDS011;57248;47.320;15.998;2023-01-31T03:51:28;0.60;;;0.00;;
69937;SDS011;57248;47.320;15.998;2023-01-31T03:54:05;1.48;;;0.10;;
69937;SDS011;57248;47.320;15.998;2023-01-31T03:59:44;0.60;;;0.00;;
69937;SDS011;57248;47.320;15.998;2023-01-31T04:02:26;1.48;;;0.10;;
69937;SDS011;57248;47.320;15.998;2023-01-31T04:05:06;0.23;;;0.00;;
69937;SDS011;57248;47.320;15.998;2023-01-31T04:07:41;0.63;;;0.00;;
69937;SDS011;57248;47.320;15.998;2023-01-31T04:10:26;0.90;;;0.10;;
69937;SDS011;57248;47.320;15.998;2023-01-31T04:13:01;0.80;;;0.08;;
69937;SDS011;57248;47.320;15.998;2023-01-31T04:15:33;1.35;;;0.10;;
69937;SDS011;57248;47.320;15.998;2023-01-31T04:18:05;4.13;;;1.07;;
69937;SDS011;57248;47.320;15.998;2023-01-31T04:20:37;1.92;;;0.30;;
69937;SDS011;57248;47.320;15.998;2023-01-31T04:23:03;1.30;;;0.20;;
69937;SDS011;57248;47.320;15.998;2023-01-31T04:25:34;0.80;;;0.03;;
69937;SDS011;57248;47.320;15.998;2023-01-31T04:28:06;2.45;;;0.10;;
69937;SDS011;57248;47.320;15.998;2023-01-31T04:30:38;0.57;;;0.00;;
69937;SDS011;57248;47.320;15.998;2023-01-31T04:33:10;0.60;;;0.00;;
69937;SDS011;57248;47.320;15.998;2023-01-31T04:35:42;1.40;;;0.07;;
69937;SDS011;57248;47.320;15.998;2023-01-31T04:38:14;1.35;;;0.10;;
69937;SDS011;57248;47.320;15.998;2023-01-31T04:40:47;1.27;;;0.00;;
69937;SDS011;57248;47.320;15.998;2023-01-31T04:43:19;0.93;;;0.00;;
69937;SDS011;57248;47.320;15.998;2023-01-31T04:45:51;1.23;;;0.00;;
69937;SDS011;57248;47.320;15.998;2023-01-31T04:48:23;0.67;;;0.00;;
69937;SDS011;57248;47.320;15.998;2023-01-31T04:50:55;1.35;;;0.00;;
69937;SDS011;57248;47.320;15.998;2023-01-31T04:53:27;0.63;;;0.10;;
69937;SDS011;57248;47.320;15.998;2023-01-31T04:55:59;1.02;;;0.00;;
69937;SDS011;57248;47.320;15.998;2023-01-31T04:58:33;0.80;;;0.00;;
69937;SDS011;57248;47.320;15.998;2023-01-31T05:01:04;2.83;;;0.10;;
69937;SDS011;57248;47.320;15.998;2023-01-31T05:03:36;3.67;;;0.50;;
69937;SDS011;57248;47.320;15.998;2023-01-31T05:06:08;2.20;;;0.30;;
69937;SDS011;57248;47.320;15.998;2023-01-31T05:08:40;1.17;;;0.10;;
69937;SDS011;57248;47.320;15.998;2023-01-31T05:11:27;2.55;;;0.10;;
69937;SDS011;57248;47.320;15.998;2023-01-31T05:13:59;1.27;;;0.10;;
69937;SDS011;57248;47.320;15.998;2023-01-31T05:16:31;1.63;;;0.10;;
69937;SDS011;57248;47.320;15.998;2023-01-31T05:19:03;1.10;;;0.10;;
69937;SDS011;57248;47.320;15.998;2023-01-31T05:21:29;1.60;;;0.20;;
69937;SDS011;57248;47.320;15.998;2023-01-31T05:24:00;7.65;;;1.30;;
69937;SDS011;57248;47.320;15.998;2023-01-31T05:26:33;6.85;;;1.52;;
69937;SDS011;57248;47.320;15.998;2023-01-31T05:29:05;3.20;;;0.85;;
69937;SDS011;57248;47.320;15.998;2023-01-31T05:31:31;1.97;;;0.13;;
69937;SDS011;57248;47.320;15.998;2023-01-31T05:34:03;2.08;;;0.30;;
69937;SDS011;57248;47.320;15.998;2023-01-31T05:36:35;10.73;;;3.17;;
69937;SDS011;57248;47.320;15.998;2023-01-31T05:39:07;3.53;;;0.73;;
69937;SDS011;57248;47.320;15.998;2023-01-31T05:41:39;8.63;;;3.70;;
69937;SDS011;57248;47.320;15.998;2023-01-31T05:44:11;3.80;;;0.63;;
69937;SDS011;57248;47.320;15.998;2023-01-31T05:46:46;2.03;;;0.20;;
69937;SDS011;57248;47.320;15.998;2023-01-31T05:49:18;2.28;;;0.40;;
69937;SDS011;57248;47.320;15.998;2023-01-31T05:51:50;2.45;;;0.30;;
69937;SDS011;57248;47.320;15.998;2023-01-31T05:54:22;3.90;;;0.73;;
69937;SDS011;57248;47.320;15.998;2023-01-31T05:56:54;3.60;;;0.40;;
69937;SDS011;57248;47.320;15.998;2023-01-31T05:59:26;3.28;;;0.45;;
69937;SDS011;57248;47.320;15.998;2023-01-31T06:02:00;1.70;;;0.10;;
69937;SDS011;57248;47.320;15.998;2023-01-31T06:04:32;2.78;;;0.32;;
69937;SDS011;57248;47.320;15.998;2023-01-31T06:07:04;2.50;;;0.20;;
69937;SDS011;57248;47.320;15.998;2023-01-31T06:09:36;2.17;;;0.30;;
69937;SDS011;57248;47.320;15.998;2023-01-31T06:12:15;2.95;;;0.35;;
69937;SDS011;57248;47.320;15.998;2023-01-31T06:14:47;2.92;;;0.20;;
69937;SDS011;57248;47.320;15.998;2023-01-31T06:17:19;2.47;;;0.30;;
69937;SDS011;57248;47.320;15.998;2023-01-31T06:19:54;2.40;;;0.35;;
69937;SDS011;57248;47.320;15.998;2023-01-31T06:22:26;2.13;;;0.20;;
69937;SDS011;57248;47.320;15.998;2023-01-31T06:24:58;1.98;;;0.20;;
69937;SDS011;57248;47.320;15.998;2023-01-31T06:27:31;2.15;;;0.17;;
69937;SDS011;57248;47.320;15.998;2023-01-31T06:30:03;3.60;;;0.30;;
69937;SDS011;57248;47.320;15.998;2023-01-31T06:32:35;4.53;;;1.10;;
69937;SDS011;57248;47.320;15.998;2023-01-31T06:35:14;4.53;;;0.90;;
69937;SDS011;57248;47.320;15.998;2023-01-31T06:37:46;3.90;;;0.40;;
69937;SDS011;57248;47.320;15.998;2023-01-31T06:40:18;2.75;;;0.20;;
69937;SDS011;57248;47.320;15.998;2023-01-31T06:42:50;2.50;;;0.30;;
69937;SDS011;57248;47.320;15.998;2023-01-31T06:45:23;4.07;;;0.88;;
69937;SDS011;57248;47.320;15.998;2023-01-31T06:47:54;5.23;;;1.00;;
69937;SDS011;57248;47.320;15.998;2023-01-31T06:50:26;7.60;;;2.53;;
69937;SDS011;57248;47.320;15.998;2023-01-31T06:52:58;10.55;;;2.92;;
69937;SDS011;57248;47.320;15.998;2023-01-31T06:55:30;6.75;;;1.73;;
69937;SDS011;57248;47.320;15.998;2023-01-31T06:58:02;6.90;;;2.30;;
69937;SDS011;57248;47.320;15.998;2023-01-31T07:00:35;2.07;;;0.20;;
69937;SDS011;57248;47.320;15.998;2023-01-31T07:03:07;3.63;;;0.40;;
69937;SDS011;57248;47.320;15.998;2023-01-31T07:05:33;4.23;;;0.50;;
69937;SDS011;57248;47.320;15.998;2023-01-31T07:08:05;4.60;;;0.45;;
69937;SDS011;57248;47.320;15.998;2023-01-31T07:10:37;2.25;;;0.30;;
69937;SDS011;57248;47.320;15.998;2023-01-31T07:13:16;1.83;;;0.20;;
69937;SDS011;57248;47.320;15.998;2023-01-31T07:15:50;2.45;;;0.20;;
69937;SDS011;57248;47.320;15.998;2023-01-31T07:18:22;2.00;;;0.20;;
69937;SDS011;57248;47.320;15.998;2023-01-31T07:20:54;2.00;;;0.20;;
69937;SDS011;57248;47.320;15.998;2023-01-31T07:23:26;3.08;;;0.20;;
69937;SDS011;57248;47.320;15.998;2023-01-31T07:25:52;1.87;;;0.20;;
69937;SDS011;57248;47.320;15.998;2023-01-31T07:28:25;2.88;;;0.10;;
69937;SDS011;57248;47.320;15.998;2023-01-31T07:31:02;3.15;;;0.10;;
69937;SDS011;57248;47.320;15.998;2023-01-31T07:33:35;2.90;;;0.20;;
69937;SDS011;57248;47.320;15.998;2023-01-31T07:36:11;3.03;;;0.20;;
69937;SDS011;57248;47.320;15.998;2023-01-31T07:38:44;1.17;;;0.10;;
69937;SDS011;57248;47.320;15.998;2023-01-31T07:41:16;3.78;;;0.50;;
69937;SDS011;57248;47.320;15.998;2023-01-31T07:43:49;3.78;;;0.20;;
69937;SDS011;57248;47.320;15.998;2023-01-31T07:46:21;3.30;;;0.40;;
69937;SDS011;57248;47.320;15.998;2023-01-31T07:48:53;2.40;;;0.20;;
69937;SDS011;57248;47.320;15.998;2023-01-31T07:51:25;2.17;;;0.20;;
69937;SDS011;57248;47.320;15.998;2023-01-31T07:53:57;2.42;;;0.20;;
69937;SDS011;57248;47.320;15.998;2023-01-31T07:56:29;1.58;;;0.10;;
69937;SDS011;57248;47.320;15.998;2023-01-31T07:59:01;2.50;;;0.10;;
69937;SDS011;57248;47.320;15.998;2023-01-31T08:01:33;2.33;;;0.20;;
69937;SDS011;57248;47.320;15.998;2023-01-31T08:04:24;3.15;;;0.10;;
69937;SDS011;57248;47.320;15.998;2023-01-31T08:06:56;3.90;;;0.30;;
69937;SDS011;57248;47.320;15.998;2023-01-31T08:09:36;3.90;;;0.50;;
69937;SDS011;57248;47.320;15.998;2023-01-31T08:12:10;3.95;;;0.20;;
69937;SDS011;57248;47.320;15.998;2023-01-31T08:14:49;2.23;;;0.20;;
69937;SDS011;57248;47.320;15.998;2023-01-31T08:17:21;1.48;;;0.10;;
69937;SDS011;57248;47.320;15.998;2023-01-31T08:19:53;1.38;;;0.10;;
69937;SDS011;57248;47.320;15.998;2023-01-31T08:22:25;1.23;;;0.10;;
69937;SDS011;57248;47.320;15.998;2023-01-31T08:24:57;1.77;;;0.10;;
69937;SDS011;57248;47.320;15.998;2023-01-31T08:27:29;1.37;;;0.10;;
69937;SDS011;57248;47.320;15.998;2023-01-31T08:30:02;0.85;;;0.10;;
69937;SDS011;57248;47.320;15.998;2023-01-31T08:32:34;1.88;;;0.17;;
69937;SDS011;57248;47.320;15.998;2023-01-31T08:35:06;2.55;;;0.20;;
69937;SDS011;57248;47.320;15.998;2023-01-31T08:37:38;2.85;;;0.10;;
69937;SDS011;57248;47.320;15.998;2023-01-31T08:40:11;1.23;;;0.13;;
69937;SDS011;57248;47.320;15.998;2023-01-31T08:42:42;3.42;;;0.20;;
69937;SDS011;57248;47.320;15.998;2023-01-31T08:45:14;2.97;;;0.20;;
69937;SDS011;57248;47.320;15.998;2023-01-31T08:47:53;2.13;;;0.10;;
69937;SDS011;57248;47.320;15.998;2023-01-31T08:50:32;1.45;;;0.20;;
69937;SDS011;57248;47.320;15.998;2023-01-31T08:53:04;1.85;;;0.10;;
69937;SDS011;57248;47.320;15.998;2023-01-31T08:55:36;2.37;;;0.20;;
69937;SDS011;57248;47.320;15.998;2023-01-31T08:58:08;4.45;;;0.30;;
69937;SDS011;57248;47.320;15.998;2023-01-31T09:00:40;1.38;;;0.10;;
69937;SDS011;57248;47.320;15.998;2023-01-31T09:03:13;3.65;;;0.10;;
69937;SDS011;57248;47.320;15.998;2023-01-31T09:05:47;1.65;;;0.28;;
69937;SDS011;57248;47.320;15.998;2023-01-31T09:08:19;2.80;;;0.20;;
69937;SDS011;57248;47.320;15.998;2023-01-31T09:10:54;2.15;;;0.20;;
69937;SDS011;57248;47.320;15.998;2023-01-31T09:13:28;1.60;;;0.20;;
69937;SDS011;57248;47.320;15.998;2023-01-31T09:16:02;2.22;;;0.10;;
69937;SDS011;57248;47.320;15.998;2023-01-31T09:18:37;2.25;;;0.20;;
69937;SDS011;57248;47.320;15.998;2023-01-31T09:21:17;1.30;;;0.10;;
69937;SDS011;57248;47.320;15.998;2023-01-31T09:23:55;1.67;;;0.10;;
69937;SDS011;57248;47.320;15.998;2023-01-31T09:26:29;1.73;;;0.20;;
69937;SDS011;57248;47.320;15.998;2023-01-31T09:29:02;2.10;;;0.10;;
69937;SDS011;57248;47.320;15.998;2023-01-31T09:31:27;3.47;;;0.27;;
69937;SDS011;57248;47.320;15.998;2023-01-31T09:34:01;2.08;;;0.17;;
69937;SDS011;57248;47.320;15.998;2023-01-31T09:36:33;1.65;;;0.10;;
69937;SDS011;57248;47.320;15.998;2023-01-31T09:39:05;1.60;;;0.10;;
69937;SDS011;57248;47.320;15.998;2023-01-31T09:41:40;1.58;;;0.20;;
69937;SDS011;57248;47.320;15.998;2023-01-31T09:44:24;0.95;;;0.17;;
69937;SDS011;57248;47.320;15.998;2023-01-31T09:50:10;2.28;;;0.30;;
69937;SDS011;57248;47.320;15.998;2023-01-31T09:52:48;1.43;;;0.20;;
69937;SDS011;57248;47.320;15.998;2023-01-31T09:55:40;2.42;;;0.20;;
69937;SDS011;57248;47.320;15.998;2023-01-31T09:59:06;3.60;;;0.10;;
69937;SDS011;57248;47.320;15.998;2023-01-31T10:07:08;3.93;;;0.23;;
69937;SDS011;57248;47.320;15.998;2023-01-31T10:09:52;2.10;;;0.10;;
69937;SDS011;57248;47.320;15.998;2023-01-31T10:12:35;3.35;;;0.35;;
69937;SDS011;57248;47.320;15.998;2023-01-31T10:17:50;3.55;;;0.40;;
69937;SDS011;57248;47.320;15.998;2023-01-31T10:20:49;2.17;;;0.57;;
69937;SDS011;57248;47.320;15.998;2023-01-31T10:23:28;3.33;;;0.20;;
69937;SDS011;57248;47.320;15.998;2023-01-31T10:26:11;2.22;;;0.10;;
69937;SDS011;57248;47.320;15.998;2023-01-31T10:31:52;2.67;;;0.10;;
69937;SDS011;57248;47.320;15.998;2023-01-31T10:37:13;3.25;;;0.15;;
69937;SDS011;57248;47.320;15.998;2023-01-31T10:40:12;2.38;;;0.30;;
69937;SDS011;57248;47.320;15.998;2023-01-31T10:42:57;2.38;;;0.20;;
69937;SDS011;57248;47.320;15.998;2023-01-31T10:45:33;3.20;;;0.57;;
69937;SDS011;57248;47.320;15.998;2023-01-31T10:48:10;1.87;;;0.20;;
69937;SDS011;57248;47.320;15.998;2023-01-31T10:51:06;2.65;;;0.20;;
69937;SDS011;57248;47.320;15.998;2023-01-31T10:56:44;2.47;;;0.75;;
69937;SDS011;57248;47.320;15.998;2023-01-31T10:59:28;3.05;;;0.68;;
69937;SDS011;57248;47.320;15.998;2023-01-31T11:02:04;1.77;;;0.50;;
69937;SDS011;57248;47.320;15.998;2023-01-31T11:04:54;3.75;;;0.80;;
69937;SDS011;57248;47.320;15.998;2023-01-31T11:07:28;2.78;;;0.60;;
69937;SDS011;57248;47.320;15.998;2023-01-31T11:10:02;3.78;;;0.40;;
69937;SDS011;57248;47.320;15.998;2023-01-31T11:12:56;2.63;;;0.70;;
69937;SDS011;57248;47.320;15.998;2023-01-31T11:15:37;2.43;;;0.70;;
69937;SDS011;57248;47.320;15.998;2023-01-31T11:18:12;4.57;;;0.80;;
69937;SDS011;57248;47.320;15.998;2023-01-31T11:20:47;4.22;;;0.80;;
69937;SDS011;57248;47.320;15.998;2023-01-31T11:23:23;3.10;;;0.65;;
69937;SDS011;57248;47.320;15.998;2023-01-31T11:25:56;3.40;;;0.80;;
69937;SDS011;57248;47.320;15.998;2023-01-31T11:28:35;2.93;;;0.80;;
69937;SDS011;57248;47.320;15.998;2023-01-31T11:31:18;3.15;;;1.10;;
69937;SDS011;57248;47.320;15.998;2023-01-31T11:34:02;2.05;;;0.60;;
69937;SDS011;57248;47.320;15.998;2023-01-31T11:36:40;2.13;;;0.90;;
69937;SDS011;57248;47.320;15.998;2023-01-31T11:42:05;6.77;;;0.50;;
69937;SDS011;57248;47.320;15.998;2023-01-31T11:44:52;4.40;;;0.40;;
69937;SDS011;57248;47.320;15.998;2023-01-31T11:53:14;2.58;;;0.20;;
69937;SDS011;57248;47.320;15.998;2023-01-31T11:55:56;2.83;;;0.20;;
69937;SDS011;57248;47.320;15.998;2023-01-31T11:58:45;3.55;;;0.70;;
69937;SDS011;57248;47.320;15.998;2023-01-31T12:01:23;3.00;;;0.70;;
69937;SDS011;57248;47.320;15.998;2023-01-31T12:04:00;3.17;;;0.50;;
69937;SDS011;57248;47.320;15.998;2023-01-31T12:09:21;1.80;;;0.40;;
69937;SDS011;57248;47.320;15.998;2023-01-31T12:12:01;2.85;;;0.40;;
69937;SDS011;57248;47.320;15.998;2023-01-31T12:14:35;3.28;;;0.60;;
69937;SDS011;57248;47.320;15.998;2023-01-31T12:17:15;2.85;;;0.70;;
69937;SDS011;57248;47.320;15.998;2023-01-31T12:22:31;3.53;;;0.80;;
69937;SDS011;57248;47.320;15.998;2023-01-31T12:28:15;1.77;;;0.70;;
69937;SDS011;57248;47.320;15.998;2023-01-31T12:43:01;2.28;;;0.10;;
69937;SDS011;57248;47.320;15.998;2023-01-31T12:48:28;1.77;;;0.10;;
69937;SDS011;57248;47.320;15.998;2023-01-31T12:54:09;2.83;;;0.17;;
69937;SDS011;57248;47.320;15.998;2023-01-31T13:00:36;2.78;;;0.13;;
69937;SDS011;57248;47.320;15.998;2023-01-31T13:05:56;1.87;;;0.10;;
69937;SDS011;57248;47.320;15.998;2023-01-31T13:08:51;2.65;;;0.10;;
69937;SDS011;57248;47.320;15.998;2023-01-31T13:11:32;5.13;;;0.52;;
69937;SDS011;57248;47.320;15.998;2023-01-31T13:14:14;1.88;;;0.30;;
69937;SDS011;57248;47.320;15.998;2023-01-31T13:16:52;3.13;;;0.20;;
69937;SDS011;57248;47.320;15.998;2023-01-31T13:22:19;3.38;;;0.10;;
69937;SDS011;57248;47.320;15.998;2023-01-31T13:27:57;2.30;;;0.10;;
69937;SDS011;57248;47.320;15.998;2023-01-31T13:30:38;2.13;;;0.20;;
69937;SDS011;57248;47.320;15.998;2023-01-31T13:33:24;4.17;;;0.10;;
69937;SDS011;57248;47.320;15.998;2023-01-31T13:38:45;7.65;;;0.28;;
69937;SDS011;57248;47.320;15.998;2023-01-31T13:41:16;9.02;;;1.02;;
69937;SDS011;57248;47.320;15.998;2023-01-31T13:43:54;7.13;;;0.70;;
69937;SDS011;57248;47.320;15.998;2023-01-31T13:46:37;9.70;;;3.07;;
69937;SDS011;57248;47.320;15.998;2023-01-31T13:49:31;7.55;;;1.42;;
69937;SDS011;57248;47.320;15.998;2023-01-31T13:52:09;4.60;;;0.52;;
69937;SDS011;57248;47.320;15.998;2023-01-31T13:54:54;2.28;;;0.20;;
69937;SDS011;57248;47.320;15.998;2023-01-31T13:57:56;1.23;;;0.10;;
69937;SDS011;57248;47.320;15.998;2023-01-31T14:00:43;2.10;;;0.10;;
69937;SDS011;57248;47.320;15.998;2023-01-31T14:03:18;1.35;;;0.10;;
69937;SDS011;57248;47.320;15.998;2023-01-31T14:05:54;0.57;;;0.00;;
69937;SDS011;57248;47.320;15.998;2023-01-31T14:16:41;1.50;;;0.10;;
69937;SDS011;57248;47.320;15.998;2023-01-31T14:27:39;2.63;;;0.27;;
69937;SDS011;57248;47.320;15.998;2023-01-31T14:30:22;1.02;;;0.00;;
69937;SDS011;57248;47.320;15.998;2023-01-31T14:33:06;3.28;;;0.00;;
69937;SDS011;57248;47.320;15.998;2023-01-31T14:44:36;2.20;;;0.10;;
69937;SDS011;57248;47.320;15.998;2023-01-31T14:47:32;50.58;;;17.52;;
69937;SDS011;57248;47.320;15.998;2023-01-31T14:53:23;3.58;;;0.55;;
69937;SDS011;57248;47.320;15.998;2023-01-31T14:58:58;1.10;;;0.10;;
69937;SDS011;57248;47.320;15.998;2023-01-31T15:01:32;2.10;;;0.17;;
69937;SDS011;57248;47.320;15.998;2023-01-31T15:04:15;1.17;;;0.08;;
69937;SDS011;57248;47.320;15.998;2023-01-31T15:06:52;2.85;;;0.20;;
69937;SDS011;57248;47.320;15.998;2023-01-31T15:09:33;4.20;;;0.70;;
69937;SDS011;57248;47.320;15.998;2023-01-31T15:12:50;5.43;;;0.52;;
69937;SDS011;57248;47.320;15.998;2023-01-31T15:18:12;6.53;;;1.10;;
69937;SDS011;57248;47.320;15.998;2023-01-31T15:20:51;14.82;;;1.60;;
69937;SDS011;57248;47.320;15.998;2023-01-31T15:23:28;4.23;;;0.33;;
69937;SDS011;57248;47.320;15.998;2023-01-31T15:26:03;5.80;;;0.73;;
69937;SDS011;57248;47.320;15.998;2023-01-31T15:28:36;7.13;;;1.00;;
69937;SDS011;57248;47.320;15.998;2023-01-31T15:31:17;5.53;;;1.17;;
69937;SDS011;57248;47.320;15.998;2023-01-31T15:33:56;3.83;;;0.30;;
69937;SDS011;57248;47.320;15.998;2023-01-31T15:36:34;4.27;;;0.30;;
69937;SDS011;57248;47.320;15.998;2023-01-31T15:39:29;5.25;;;0.63;;
69937;SDS011;57248;47.320;15.998;2023-01-31T15:42:23;10.55;;;0.63;;
69937;SDS011;57248;47.320;15.998;2023-01-31T15:45:14;5.07;;;0.40;;
69937;SDS011;57248;47.320;15.998;2023-01-31T15:50:54;10.60;;;0.67;;
69937;SDS011;57248;47.320;15.998;2023-01-31T15:53:28;2.90;;;0.20;;
69937;SDS011;57248;47.320;15.998;2023-01-31T15:56:01;3.30;;;0.43;;
69937;SDS011;57248;47.320;15.998;2023-01-31T15:58:35;4.38;;;0.30;;
69937;SDS011;57248;47.320;15.998;2023-01-31T16:01:11;3.38;;;0.15;;
69937;SDS011;57248;47.320;15.998;2023-01-31T16:03:57;5.07;;;0.33;;
69937;SDS011;57248;47.320;15.998;2023-01-31T16:06:31;7.97;;;0.60;;
69937;SDS011;57248;47.320;15.998;2023-01-31T16:09:06;4.03;;;0.30;;
69937;SDS011;57248;47.320;15.998;2023-01-31T16:11:53;6.85;;;0.40;;
69937;SDS011;57248;47.320;15.998;2023-01-31T16:14:27;8.30;;;0.40;;
69937;SDS011;57248;47.320;15.998;2023-01-31T16:17:00;9.13;;;1.00;;
69937;SDS011;57248;47.320;15.998;2023-01-31T16:19:32;4.22;;;0.75;;
69937;SDS011;57248;47.320;15.998;2023-01-31T16:22:27;2.85;;;0.30;;
69937;SDS011;57248;47.320;15.998;2023-01-31T16:25:01;5.00;;;0.30;;
69937;SDS011;57248;47.320;15.998;2023-01-31T16:27:35;4.65;;;0.50;;
69937;SDS011;57248;47.320;15.998;2023-01-31T16:30:12;4.83;;;0.10;;
69937;SDS011;57248;47.320;15.998;2023-01-31T16:32:47;5.30;;;0.22;;
69937;SDS011;57248;47.320;15.998;2023-01-31T16:35:23;5.35;;;0.43;;
69937;SDS011;57248;47.320;15.998;2023-01-31T16:38:05;6.80;;;0.70;;
69937;SDS011;57248;47.320;15.998;2023-01-31T16:40:48;6.20;;;0.85;;
69937;SDS011;57248;47.320;15.998;2023-01-31T16:46:00;12.93;;;2.47;;
69937;SDS011;57248;47.320;15.998;2023-01-31T16:49:01;25.85;;;6.43;;
69937;SDS011;57248;47.320;15.998;2023-01-31T16:51:41;20.38;;;5.63;;
69937;SDS011;57248;47.320;15.998;2023-01-31T16:54:23;17.75;;;5.10;;
69937;SDS011;57248;47.320;15.998;2023-01-31T16:57:05;23.27;;;6.77;;
69937;SDS011;57248;47.320;15.998;2023-01-31T16:59:50;34.80;;;8.30;;
69937;SDS011;57248;47.320;15.998;2023-01-31T17:02:27;39.25;;;9.40;;
69937;SDS011;57248;47.320;15.998;2023-01-31T17:05:08;33.97;;;9.02;;
69937;SDS011;57248;47.320;15.998;2023-01-31T17:07:47;27.70;;;7.90;;
69937;SDS011;57248;47.320;15.998;2023-01-31T17:10:19;28.97;;;7.77;;
69937;SDS011;57248;47.320;15.998;2023-01-31T17:12:59;25.05;;;6.10;;
69937;SDS011;57248;47.320;15.998;2023-01-31T17:15:35;20.95;;;6.00;;
69937;SDS011;57248;47.320;15.998;2023-01-31T17:18:09;23.13;;;6.70;;
69937;SDS011;57248;47.320;15.998;2023-01-31T17:20:44;24.63;;;7.32;;
69937;SDS011;57248;47.320;15.998;2023-01-31T17:23:19;24.03;;;6.83;;
69937;SDS011;57248;47.320;15.998;2023-01-31T17:25:51;23.10;;;6.95;;
69937;SDS011;57248;47.320;15.998;2023-01-31T17:28:23;29.50;;;7.32;;
69937;SDS011;57248;47.320;15.998;2023-01-31T17:30:55;28.33;;;7.00;;
69937;SDS011;57248;47.320;15.998;2023-01-31T17:33:28;25.27;;;6.43;;
69937;SDS011;57248;47.320;15.998;2023-01-31T17:36:00;22.93;;;6.87;;
69937;SDS011;57248;47.320;15.998;2023-01-31T17:38:25;17.40;;;4.55;;
69937;SDS011;57248;47.320;15.998;2023-01-31T17:40:58;20.33;;;5.03;;
69937;SDS011;57248;47.320;15.998;2023-01-31T17:43:30;16.08;;;5.05;;